South AfricaFixed distance
Two Oceans Marathon
22 Apr2000
Distance
56km
Finishers
8,3216,808 men1,513 women
Winning time
3:13:12h
Median pace
9.91km/h
Pace distribution
8,321 finishers · 8.00–17.39 km/h · mean 10.27
Every finisher ran the same 56 km course, so these paces are directly comparable.
Histogram of finisher pace. 8,321 finishers ranged from 8.00 to 17.39 kilometres per hour, with a mean of 10.27 and a median of 9.91. The busiest band is 9.5 to 10.0 kilometres per hour, with 1,673 finishers.
Results
Ranks 851–900 of 8,321
| Rank | Runner | Time | Pace | Cat. | Placing |
|---|---|---|---|---|---|
| 851 | du Preez, MalanSouth AfricaMan | 4:34:40h | 12.23 | M23 | 814th M · 382nd M23 |
| 852 | Cieverts, Henry PaulSouth AfricaMan | 4:34:41h | 12.23 | M40 | 815th M · 135th M40 |
| 853 | Molyneaux, BrianSouth AfricaMan | 4:34:48h | 12.23 | M45 | 816th M · 48th M45 |
| 854 | Kekana, MatsobaneSouth AfricaMan | 4:34:50h | 12.23 | M23 | 817th M · 383rd M23 |
| 855 | Ally, RussellSouth AfricaMan | 4:34:52h | 12.22 | M40 | 818th M · 136th M40 |
| 856 | Bridges, LesSouth AfricaMan | 4:34:53h | 12.22 | M35 | 819th M · 202nd M35 |
| 857 | Kater, DarionSouth AfricaMan | 4:34:53h | 12.22 | M35 | 819th M · 202nd M35 |
| 858 | Templeton, TanyaSouth AfricaWoman | 4:34:55h | 12.22 | W23 | 38th F · 13th W23 |
| 859 | von Geusau, ChrisSouth AfricaMan | 4:34:56h | 12.22 | M35 | 821st M · 204th M35 |
| 860 | Spinks, AndrewSouth AfricaMan | 4:34:59h | 12.22 | M23 | 822nd M · 384th M23 |
| 861 | Stegmann, HanlieSouth AfricaWoman | 4:35:01h | 12.22 | W40 | 39th F · 11th W40 |
| 862 | Barnard, HennieSouth AfricaMan | 4:35:02h | 12.22 | M45 | 823rd M · 49th M45 |
| 863 | Stevens, JohnSouth AfricaMan | 4:35:04h | 12.21 | M35 | 824th M · 205th M35 |
| 864 | Formby, JamesSouth AfricaMan | 4:35:07h | 12.21 | M23 | 825th M · 385th M23 |
| 865 | Dladla, MbuyiseniSouth AfricaMan | 4:35:10h | 12.21 | M35 | 826th M · 206th M35 |
| 866 | Jacobs, PietSouth AfricaMan | 4:35:11h | 12.21 | M40 | 827th M · 137th M40 |
| 867 | Mabana, CollenSouth AfricaMan | 4:35:11h | 12.21 | M23 | 827th M · 386th M23 |
| 868 | Swart, LucasSouth AfricaMan | 4:35:11h | 12.21 | M35 | 827th M · 207th M35 |
| 869 | Olivier, MeneSouth AfricaWoman | 4:35:14h | 12.21 | W23 | 40th F · 14th W23 |
| 870 | Carstens, MarkSouth AfricaMan | 4:35:19h | 12.20 | M23 | 830th M · 387th M23 |
| 871 | du Toit, JanSouth AfricaMan | 4:35:20h | 12.20 | M23 | 831st M · 388th M23 |
| 872 | Michaels, JacobusSouth AfricaMan | 4:35:25h | 12.20 | M35 | 832nd M · 208th M35 |
| 873 | Kirkdale, BrianGreat BritainMan | 4:35:26h | 12.20 | M40 | 833rd M · 138th M40 |
| 874 | Crouch, DavidSouth AfricaMan | 4:35:27h | 12.20 | M35 | 834th M · 209th M35 |
| 875 | Shezi, BenSouth AfricaMan | 4:35:31h | 12.20 | M45 | 835th M · 50th M45 |
| 876 | van Jaarsveld, WillemSouth AfricaMan | 4:35:31h | 12.20 | M45 | 835th M · 50th M45 |
| 877 | van Der Merwe, GerrieSouth AfricaMan | 4:35:32h | 12.20 | M23 | 837th M · 389th M23 |
| 878 | Swanepoel, JanSouth AfricaMan | 4:35:35h | 12.19 | M45 | 838th M · 52nd M45 |
| 879 | van Schalkwyk, MandySouth AfricaWoman | 4:35:35h | 12.19 | W35 | 41st F · 11th W35 |
| 880 | Marais, AndreSouth AfricaMan | 4:35:35h | 12.19 | M40 | 838th M · 139th M40 |
| 881 | van der Walt, KobusSouth AfricaMan | 4:35:40h | 12.19 | M45 | 840th M · 53rd M45 |
| 882 | Manzini, JohnSouth AfricaMan | 4:35:43h | 12.19 | M35 | 841st M · 210th M35 |
| 883 | Erasmus, MartinSouth AfricaMan | 4:35:44h | 12.19 | M23 | 842nd M · 390th M23 |
| 884 | McDonald, IanSouth AfricaMan | 4:35:46h | 12.18 | M45 | 843rd M · 54th M45 |
| 885 | Schultz, JanSouth AfricaMan | 4:35:47h | 12.18 | M35 | 844th M · 211th M35 |
| 886 | Kwiatkowski, JurekSouth AfricaMan | 4:35:49h | 12.18 | M50 | 845th M · 23rd M50 |
| 887 | Jones, SammySouth AfricaMan | 4:35:50h | 12.18 | M40 | 846th M · 140th M40 |
| 888 | Hartzenberg, MarkSouth AfricaMan | 4:35:50h | 12.18 | M35 | 846th M · 212th M35 |
| 889 | Welleman, ElzetteSouth AfricaWoman | 4:35:52h | 12.18 | W40 | 42nd F · 12th W40 |
| 890 | Blom, JanSouth AfricaMan | 4:35:59h | 12.18 | M50 | 848th M · 24th M50 |
| 891 | Lodewyk, BenSouth AfricaMan | 4:36:04h | 12.17 | M40 | 849th M · 141st M40 |
| 892 | van Heerden, Ilse FritzSouth AfricaWoman | 4:36:07h | 12.17 | W40 | 43rd F · 13th W40 |
| 893 | Leader, PaulSouth AfricaMan | 4:36:10h | 12.17 | M40 | 850th M · 142nd M40 |
| 894 | Mbande, DilizaSouth AfricaMan | 4:36:13h | 12.16 | M50 | 851st M · 25th M50 |
| 895 | Glover, AthanGreat BritainMan | 4:36:13h | 12.16 | M23 | 851st M · 391st M23 |
| 896 | Schaap, WillieSouth AfricaMan | 4:36:13h | 12.16 | M40 | 851st M · 143rd M40 |
| 897 | Claassen, FanieSouth AfricaMan | 4:36:13h | 12.16 | M40 | 851st M · 143rd M40 |
| 898 | Grobler, FerdinandSouth AfricaMan | 4:36:14h | 12.16 | M40 | 855th M · 145th M40 |
| 899 | Johl, RolfSouth AfricaMan | 4:36:14h | 12.16 | M40 | 855th M · 145th M40 |
| 900 | Crosley, CarolSouth AfricaWoman | 4:36:15h | 12.16 | W35 | 44th F · 12th W35 |
- 851du Preez, MalanSouth AfricaMan814th M · 382nd M23Time4:34:40hPace12.23Cat.M23
- 852Cieverts, Henry PaulSouth AfricaMan815th M · 135th M40Time4:34:41hPace12.23Cat.M40
- 853Molyneaux, BrianSouth AfricaMan816th M · 48th M45Time4:34:48hPace12.23Cat.M45
- 854Kekana, MatsobaneSouth AfricaMan817th M · 383rd M23Time4:34:50hPace12.23Cat.M23
- 855Ally, RussellSouth AfricaMan818th M · 136th M40Time4:34:52hPace12.22Cat.M40
- 856Bridges, LesSouth AfricaMan819th M · 202nd M35Time4:34:53hPace12.22Cat.M35
- 857Kater, DarionSouth AfricaMan819th M · 202nd M35Time4:34:53hPace12.22Cat.M35
- 858Templeton, TanyaSouth AfricaWoman38th F · 13th W23Time4:34:55hPace12.22Cat.W23
- 859von Geusau, ChrisSouth AfricaMan821st M · 204th M35Time4:34:56hPace12.22Cat.M35
- 860Spinks, AndrewSouth AfricaMan822nd M · 384th M23Time4:34:59hPace12.22Cat.M23
- 861Stegmann, HanlieSouth AfricaWoman39th F · 11th W40Time4:35:01hPace12.22Cat.W40
- 862Barnard, HennieSouth AfricaMan823rd M · 49th M45Time4:35:02hPace12.22Cat.M45
- 863Stevens, JohnSouth AfricaMan824th M · 205th M35Time4:35:04hPace12.21Cat.M35
- 864Formby, JamesSouth AfricaMan825th M · 385th M23Time4:35:07hPace12.21Cat.M23
- 865Dladla, MbuyiseniSouth AfricaMan826th M · 206th M35Time4:35:10hPace12.21Cat.M35
- 866Jacobs, PietSouth AfricaMan827th M · 137th M40Time4:35:11hPace12.21Cat.M40
- 867Mabana, CollenSouth AfricaMan827th M · 386th M23Time4:35:11hPace12.21Cat.M23
- 868Swart, LucasSouth AfricaMan827th M · 207th M35Time4:35:11hPace12.21Cat.M35
- 869Olivier, MeneSouth AfricaWoman40th F · 14th W23Time4:35:14hPace12.21Cat.W23
- 870Carstens, MarkSouth AfricaMan830th M · 387th M23Time4:35:19hPace12.20Cat.M23
- 871du Toit, JanSouth AfricaMan831st M · 388th M23Time4:35:20hPace12.20Cat.M23
- 872Michaels, JacobusSouth AfricaMan832nd M · 208th M35Time4:35:25hPace12.20Cat.M35
- 873Kirkdale, BrianGreat BritainMan833rd M · 138th M40Time4:35:26hPace12.20Cat.M40
- 874Crouch, DavidSouth AfricaMan834th M · 209th M35Time4:35:27hPace12.20Cat.M35
- 875Shezi, BenSouth AfricaMan835th M · 50th M45Time4:35:31hPace12.20Cat.M45
- 876van Jaarsveld, WillemSouth AfricaMan835th M · 50th M45Time4:35:31hPace12.20Cat.M45
- 877van Der Merwe, GerrieSouth AfricaMan837th M · 389th M23Time4:35:32hPace12.20Cat.M23
- 878Swanepoel, JanSouth AfricaMan838th M · 52nd M45Time4:35:35hPace12.19Cat.M45
- 879van Schalkwyk, MandySouth AfricaWoman41st F · 11th W35Time4:35:35hPace12.19Cat.W35
- 880Marais, AndreSouth AfricaMan838th M · 139th M40Time4:35:35hPace12.19Cat.M40
- 881van der Walt, KobusSouth AfricaMan840th M · 53rd M45Time4:35:40hPace12.19Cat.M45
- 882Manzini, JohnSouth AfricaMan841st M · 210th M35Time4:35:43hPace12.19Cat.M35
- 883Erasmus, MartinSouth AfricaMan842nd M · 390th M23Time4:35:44hPace12.19Cat.M23
- 884McDonald, IanSouth AfricaMan843rd M · 54th M45Time4:35:46hPace12.18Cat.M45
- 885Schultz, JanSouth AfricaMan844th M · 211th M35Time4:35:47hPace12.18Cat.M35
- 886Kwiatkowski, JurekSouth AfricaMan845th M · 23rd M50Time4:35:49hPace12.18Cat.M50
- 887Jones, SammySouth AfricaMan846th M · 140th M40Time4:35:50hPace12.18Cat.M40
- 888Hartzenberg, MarkSouth AfricaMan846th M · 212th M35Time4:35:50hPace12.18Cat.M35
- 889Welleman, ElzetteSouth AfricaWoman42nd F · 12th W40Time4:35:52hPace12.18Cat.W40
- 890Blom, JanSouth AfricaMan848th M · 24th M50Time4:35:59hPace12.18Cat.M50
- 891Lodewyk, BenSouth AfricaMan849th M · 141st M40Time4:36:04hPace12.17Cat.M40
- 892van Heerden, Ilse FritzSouth AfricaWoman43rd F · 13th W40Time4:36:07hPace12.17Cat.W40
- 893Leader, PaulSouth AfricaMan850th M · 142nd M40Time4:36:10hPace12.17Cat.M40
- 894Mbande, DilizaSouth AfricaMan851st M · 25th M50Time4:36:13hPace12.16Cat.M50
- 895Glover, AthanGreat BritainMan851st M · 391st M23Time4:36:13hPace12.16Cat.M23
- 896Schaap, WillieSouth AfricaMan851st M · 143rd M40Time4:36:13hPace12.16Cat.M40
- 897Claassen, FanieSouth AfricaMan851st M · 143rd M40Time4:36:13hPace12.16Cat.M40
- 898Grobler, FerdinandSouth AfricaMan855th M · 145th M40Time4:36:14hPace12.16Cat.M40
- 899Johl, RolfSouth AfricaMan855th M · 145th M40Time4:36:14hPace12.16Cat.M40
- 900Crosley, CarolSouth AfricaWoman44th F · 12th W35Time4:36:15hPace12.16Cat.W35
Showing ranks 851–900 of 8,321